createdAt,value
2018-09-10T00:00:47.132Z,17.39
2018-09-10T00:01:47.113Z,17.38
2018-09-10T00:02:47.083Z,17.36
2018-09-10T00:03:47.057Z,17.25
2018-09-10T00:04:47.033Z,17.25
2018-09-10T00:05:47.008Z,17.25
2018-09-10T00:06:46.984Z,17.25
2018-09-10T00:07:46.957Z,17.32
2018-09-10T00:08:46.932Z,17.30
2018-09-10T00:09:46.906Z,17.24
2018-09-10T00:10:47.085Z,17.21
2018-09-10T00:11:46.862Z,17.24
2018-09-10T00:12:46.832Z,17.20
2018-09-10T00:13:46.810Z,17.32
2018-09-10T00:14:46.783Z,17.27
2018-09-10T00:15:46.758Z,17.21
2018-09-10T00:16:46.733Z,17.24
2018-09-10T00:17:46.707Z,17.24
2018-09-10T00:18:46.683Z,17.32
2018-09-10T00:19:46.657Z,17.40
2018-09-10T00:20:46.637Z,17.25
2018-09-10T00:21:46.608Z,17.27
2018-09-10T00:22:46.582Z,17.24
2018-09-10T00:23:46.560Z,17.22
2018-09-10T00:24:46.536Z,17.20
2018-09-10T00:25:46.507Z,17.18
2018-09-10T00:26:46.482Z,17.18
2018-09-10T00:27:46.457Z,17.14
2018-09-10T00:28:46.436Z,17.17
2018-09-10T00:29:46.408Z,17.20
2018-09-10T00:30:46.381Z,17.14
2018-09-10T00:31:46.356Z,17.18
2018-09-10T00:32:46.332Z,17.18
2018-09-10T00:33:46.306Z,17.17
2018-09-10T00:34:46.283Z,17.20
2018-09-10T00:35:46.256Z,17.14
2018-09-10T00:36:46.231Z,17.20
2018-09-10T00:37:46.509Z,17.18
2018-09-10T00:38:46.182Z,17.10
2018-09-10T00:39:46.156Z,17.10
2018-09-10T00:40:46.135Z,17.10
2018-09-10T00:41:46.106Z,17.15
2018-09-10T00:42:46.085Z,17.07
2018-09-10T00:43:46.359Z,17.06
2018-09-10T00:44:46.031Z,17.05
2018-09-10T00:45:46.006Z,16.99
2018-09-10T00:46:45.981Z,17.03
2018-09-10T00:47:45.956Z,17.02
2018-09-10T00:48:45.929Z,17.06
2018-09-10T00:49:45.906Z,17.00
2018-09-10T00:50:45.881Z,17.07
2018-09-10T00:51:45.864Z,17.09
2018-09-10T00:52:45.830Z,17.10
2018-09-10T00:53:45.810Z,17.10
2018-09-10T00:54:45.781Z,17.17
2018-09-10T00:55:45.755Z,17.05
2018-09-10T00:56:45.729Z,17.07
2018-09-10T00:57:45.708Z,17.10
2018-09-10T00:58:45.683Z,16.99
2018-09-10T00:59:45.654Z,17.03
2018-09-10T01:00:45.629Z,17.02
2018-09-10T01:01:45.609Z,17.00
2018-09-10T01:02:45.580Z,17.03
2018-09-10T01:03:45.554Z,17.02
2018-09-10T01:04:45.529Z,17.06
2018-09-10T01:08:34.712Z,17.09
2018-09-10T01:09:34.080Z,16.98
2018-09-10T01:10:34.053Z,16.95
2018-09-10T01:11:34.029Z,16.84
2018-09-10T01:12:34.004Z,16.91
2018-09-10T01:13:33.977Z,16.82
2018-09-10T01:14:33.953Z,17.00
2018-09-10T01:15:33.929Z,16.91
2018-09-10T01:16:33.902Z,16.91
2018-09-10T01:17:33.877Z,16.82
2018-09-10T01:18:33.851Z,16.87
2018-09-10T01:19:33.826Z,16.88
2018-09-10T01:20:33.801Z,16.85
2018-09-10T01:21:33.782Z,16.92
2018-09-10T01:22:33.750Z,16.90
2018-09-10T01:23:33.725Z,16.87
2018-09-10T01:24:33.700Z,16.82
2018-09-10T01:25:33.676Z,16.82
2018-09-10T01:26:33.650Z,16.77
2018-09-10T01:27:33.623Z,16.82
2018-09-10T01:28:33.600Z,16.85
2018-09-10T01:29:33.575Z,16.87
2018-09-10T01:30:33.548Z,16.72
2018-09-10T01:31:33.522Z,16.87
2018-09-10T01:32:33.497Z,16.75
2018-09-10T01:39:53.028Z,16.70
2018-09-10T01:40:52.795Z,16.80
2018-09-10T01:41:52.770Z,16.75
2018-09-10T01:42:52.744Z,16.81
2018-09-10T01:44:35.070Z,16.70
2018-09-10T01:45:34.843Z,16.77
2018-09-10T01:46:34.817Z,16.72
2018-09-10T01:47:34.791Z,16.72
2018-09-10T01:48:34.766Z,16.67
2018-09-10T01:49:34.740Z,16.70
2018-09-10T01:50:34.714Z,16.67
2018-09-10T01:51:34.690Z,16.66
2018-09-10T01:52:34.665Z,16.65
2018-09-10T01:53:34.637Z,16.63
2018-09-10T01:54:34.617Z,16.69
2018-09-10T01:55:34.589Z,16.63
2018-09-10T01:56:34.565Z,16.60
2018-09-10T01:57:34.535Z,16.66
2018-09-10T01:58:34.510Z,16.66
2018-09-10T01:59:34.484Z,16.73
2018-09-10T02:00:34.463Z,16.70
2018-09-10T02:01:34.437Z,16.69
2018-09-10T02:02:34.408Z,16.60
2018-09-10T02:03:34.387Z,16.69
2018-09-10T02:04:34.357Z,16.63
2018-09-10T02:05:34.332Z,16.66
2018-09-10T02:06:34.306Z,16.60
2018-09-10T02:07:34.285Z,16.66
2018-09-10T02:08:34.261Z,16.67
2018-09-10T02:09:34.231Z,16.65
2018-09-10T02:10:34.205Z,16.66
2018-09-10T02:11:34.180Z,16.73
2018-09-10T02:12:34.174Z,16.72
2018-09-10T02:13:34.129Z,16.72
2018-09-10T02:14:34.153Z,16.75
2018-09-10T02:15:34.078Z,16.78
2018-09-10T02:16:34.053Z,16.72
2018-09-10T02:17:34.027Z,16.73
2018-09-10T02:18:34.000Z,16.77
2018-09-10T02:19:33.977Z,16.81
2018-09-10T02:20:33.952Z,16.82
2018-09-10T02:21:33.925Z,16.72
2018-09-10T02:22:33.909Z,16.77
2018-09-10T02:23:33.935Z,16.72
2018-09-10T02:24:33.850Z,16.78
2018-09-10T02:25:33.826Z,16.72
2018-09-10T02:26:33.798Z,16.85
2018-09-10T02:27:33.973Z,16.85
2018-09-10T02:28:33.748Z,16.72
2018-09-10T02:29:33.722Z,16.78
2018-09-10T02:30:33.706Z,16.84
2018-09-10T02:31:33.673Z,16.87
2018-09-10T02:32:33.647Z,16.91
2018-09-10T02:33:33.621Z,16.85
2018-09-10T02:34:33.596Z,16.90
2018-09-10T02:35:33.575Z,16.81
2018-09-10T02:36:33.545Z,16.84
2018-09-10T02:37:33.520Z,16.84
2018-09-10T02:38:33.513Z,16.82
2018-09-10T02:39:33.470Z,16.87
2018-09-10T02:40:33.447Z,16.84
2018-09-10T02:41:33.420Z,16.82
2018-09-10T02:42:33.393Z,16.91
2018-09-10T02:43:33.368Z,16.81
2018-09-10T02:44:33.343Z,16.84
2018-09-10T02:45:33.318Z,16.91
2018-09-10T02:46:33.293Z,16.82
2018-09-10T02:47:33.268Z,16.70
2018-09-10T02:48:33.242Z,16.73
2018-09-10T02:49:33.215Z,16.66
2018-09-10T02:50:33.193Z,16.67
2018-09-10T02:51:33.177Z,16.63
2018-09-10T02:52:33.143Z,16.60
2018-09-10T02:53:33.117Z,16.57
2018-09-10T02:54:33.089Z,16.52
2018-09-10T02:55:33.081Z,16.55
2018-09-10T02:56:33.050Z,16.59
2018-09-10T02:57:33.016Z,16.51
2018-09-10T02:58:32.989Z,16.55
2018-09-10T02:59:32.964Z,16.62
2018-09-10T03:00:32.939Z,16.62
2018-09-10T03:01:32.914Z,16.55
2018-09-10T03:02:32.888Z,16.57
2018-09-10T03:03:32.865Z,16.65
2018-09-10T03:04:32.838Z,16.66
2018-09-10T03:05:32.812Z,16.57
2018-09-10T03:06:32.787Z,16.60
2018-09-10T03:07:32.760Z,16.65
2018-09-10T03:08:32.736Z,16.60
2018-09-10T03:09:32.710Z,16.45
2018-09-10T03:10:32.685Z,16.48
2018-09-10T03:11:32.660Z,16.47
2018-09-10T03:12:32.639Z,16.44
2018-09-10T03:13:32.609Z,16.45
2018-09-10T03:14:32.585Z,16.47
2018-09-10T03:15:32.559Z,16.29
2018-09-10T03:16:32.535Z,16.37
2018-09-10T03:17:32.513Z,16.44
2018-09-10T03:18:32.486Z,16.40
2018-09-10T03:19:32.458Z,16.52
2018-09-10T03:20:32.431Z,16.40
2018-09-10T03:21:32.406Z,16.48
2018-09-10T03:22:32.383Z,16.40
2018-09-10T03:23:32.363Z,16.44
2018-09-10T03:24:32.344Z,16.48
2018-09-10T03:25:32.304Z,16.65
2018-09-10T03:26:32.279Z,16.55
2018-09-10T03:27:32.254Z,16.65
2018-09-10T03:28:32.229Z,16.54
2018-09-10T03:29:32.202Z,16.59
2018-09-10T03:30:32.178Z,16.55
2018-09-10T03:31:32.153Z,16.52
2018-09-10T03:32:32.132Z,16.62
2018-09-10T03:33:32.139Z,16.59
2018-09-10T03:34:32.075Z,16.50
2018-09-10T03:35:32.064Z,16.47
2018-09-10T03:36:32.026Z,16.41
2018-09-10T03:37:32.001Z,16.57
2018-09-10T03:38:31.975Z,16.57
2018-09-10T03:39:31.955Z,16.52
2018-09-10T03:40:31.925Z,16.59
2018-09-10T03:41:31.899Z,16.55
2018-09-10T03:42:31.873Z,16.52
2018-09-10T03:43:31.848Z,16.52
2018-09-10T03:44:31.823Z,16.51
2018-09-10T03:45:31.797Z,16.54
2018-09-10T03:46:31.772Z,16.62
2018-09-10T03:47:31.747Z,16.63
2018-09-10T03:48:31.721Z,16.60
2018-09-10T03:49:31.704Z,16.66
2018-09-10T03:50:31.671Z,16.65
2018-09-10T03:51:31.645Z,16.67
2018-09-10T03:52:31.620Z,16.60
2018-09-10T03:53:31.597Z,16.65
2018-09-10T03:54:31.568Z,16.67
2018-09-10T03:55:31.544Z,16.62
2018-09-10T03:56:31.522Z,16.60
2018-09-10T03:57:31.493Z,16.59
2018-09-10T03:58:31.467Z,16.66
2018-09-10T03:59:31.442Z,16.62
2018-09-10T04:00:31.417Z,16.66
2018-09-10T04:01:31.394Z,16.66
2018-09-10T04:02:31.366Z,16.67
2018-09-10T04:03:31.342Z,16.66
2018-09-10T04:04:31.316Z,16.67
2018-09-10T04:05:31.292Z,16.59
2018-09-10T04:06:31.264Z,16.54
2018-09-10T04:07:31.239Z,16.51
2018-09-10T04:08:31.215Z,16.63
2018-09-10T04:09:31.190Z,16.51
2018-09-10T04:10:31.163Z,16.62
2018-09-10T04:11:31.137Z,16.52
2018-09-10T04:12:31.113Z,16.55
2018-09-10T04:13:31.086Z,16.41
2018-09-10T04:14:31.064Z,16.44
2018-09-10T04:15:31.049Z,16.45
2018-09-10T04:16:31.018Z,16.34
2018-09-10T04:17:30.991Z,16.36
2018-09-10T04:18:31.163Z,16.32
2018-09-10T04:19:30.934Z,16.32
2018-09-10T04:20:30.911Z,16.40
2018-09-10T04:21:30.886Z,16.36
2018-09-10T04:22:30.858Z,16.42
2018-09-10T04:23:30.834Z,16.50
2018-09-10T04:24:30.808Z,16.44
2018-09-10T04:25:30.785Z,16.44
2018-09-10T04:26:30.757Z,16.48
2018-09-10T04:27:30.739Z,16.47
2018-09-10T04:28:30.705Z,16.50
2018-09-10T04:29:30.692Z,16.54
2018-09-10T04:30:30.656Z,16.52
2018-09-10T04:31:30.634Z,16.55
2018-09-10T04:32:30.607Z,16.69
2018-09-10T04:33:30.578Z,16.65
2018-09-10T04:34:30.552Z,16.72
2018-09-10T04:35:30.528Z,16.67
2018-09-10T04:36:30.502Z,16.66
2018-09-10T04:37:30.478Z,16.67
2018-09-10T04:38:30.452Z,16.66
2018-09-10T04:39:30.427Z,16.63
2018-09-10T04:40:30.401Z,16.62
2018-09-10T04:41:30.377Z,16.69
2018-09-10T04:42:30.350Z,16.67
2018-09-10T04:43:30.325Z,16.75
2018-09-10T04:44:30.303Z,16.70
2018-09-10T04:45:30.277Z,16.73
2018-09-10T04:46:30.249Z,16.60
2018-09-10T04:47:30.223Z,16.67
2018-09-10T04:48:30.206Z,16.63
2018-09-10T04:49:30.179Z,16.72
2018-09-10T04:50:30.147Z,16.66
2018-09-10T04:51:30.122Z,16.70
2018-09-10T04:52:30.098Z,16.72
2018-09-10T04:53:30.071Z,16.73
2018-09-10T04:54:30.046Z,16.77
2018-09-10T04:55:30.026Z,16.70
2018-09-10T04:56:30.199Z,16.72
2018-09-10T04:57:29.969Z,16.70
2018-09-10T04:58:29.948Z,16.67
2018-09-10T04:59:29.920Z,16.77
2018-09-10T05:00:30.395Z,16.78
2018-09-10T05:01:29.869Z,16.69
2018-09-10T05:02:29.843Z,16.73
2018-09-10T05:03:29.824Z,16.69
2018-09-10T05:04:29.901Z,16.78
2018-09-10T05:05:29.768Z,16.77
2018-09-10T05:06:29.742Z,16.78
2018-09-10T05:07:29.718Z,16.73
2018-09-10T05:08:29.692Z,16.70
2018-09-10T05:09:29.670Z,16.67
2018-09-10T05:10:29.644Z,16.65
2018-09-10T05:11:29.620Z,16.67
2018-09-10T05:12:29.891Z,16.72
2018-09-10T05:13:29.569Z,16.75
2018-09-10T05:14:29.540Z,16.77
2018-09-10T05:15:29.521Z,16.73
2018-09-10T05:16:29.494Z,16.73
2018-09-10T05:17:29.483Z,16.73
2018-09-10T05:18:29.790Z,16.91
2018-09-10T05:19:29.415Z,16.98
2018-09-10T05:20:29.390Z,17.14
2018-09-10T05:21:29.369Z,17.20
2018-09-10T05:22:29.339Z,17.12
2018-09-10T05:23:29.318Z,17.28
2018-09-10T05:24:29.289Z,17.18
2018-09-10T05:25:29.264Z,17.20
2018-09-10T05:26:29.239Z,17.15
2018-09-10T05:28:53.717Z,17.21
2018-09-10T05:29:53.496Z,17.25
2018-09-10T05:30:53.465Z,17.39
2018-09-10T05:31:53.441Z,17.33
2018-09-10T05:32:53.622Z,17.32
2018-09-10T05:33:53.598Z,17.40
2018-09-10T05:34:53.365Z,17.39
2018-09-10T05:35:53.590Z,17.42
2018-09-10T05:36:53.315Z,17.43
2018-09-10T05:37:53.491Z,17.40
2018-09-10T05:38:53.467Z,17.42
2018-09-10T05:39:53.240Z,17.40
2018-09-10T05:40:53.215Z,17.43
2018-09-10T05:41:53.190Z,17.39
2018-09-10T05:42:53.172Z,17.42
2018-09-10T05:43:53.142Z,17.40
2018-09-10T05:44:53.117Z,17.55
2018-09-10T05:45:53.094Z,17.47
2018-09-10T05:46:53.066Z,17.49
2018-09-10T05:47:53.344Z,17.60
2018-09-10T05:48:53.018Z,17.60
2018-09-10T05:49:52.993Z,17.68
2018-09-10T05:50:52.969Z,17.65
2018-09-10T05:52:35.312Z,17.77
2018-09-10T05:53:35.077Z,17.86
2018-09-10T05:54:35.047Z,17.86
2018-09-10T05:55:35.153Z,17.89
2018-09-10T05:58:44.277Z,17.98
2018-09-10T05:59:41.428Z,17.96
2018-09-10T06:00:41.404Z,18.16
2018-09-10T06:01:41.384Z,18.16
2018-09-10T06:02:41.360Z,18.16
2018-09-10T06:03:41.329Z,18.13
2018-09-10T06:04:41.306Z,18.05
2018-09-10T06:05:41.282Z,17.99
2018-09-10T06:06:41.460Z,18.11
2018-09-10T06:07:41.234Z,18.13
2018-09-10T06:09:23.566Z,18.01
2018-09-10T06:10:23.579Z,18.01
2018-09-10T06:11:23.516Z,17.92
2018-09-10T06:12:23.289Z,17.94
2018-09-10T06:13:23.265Z,17.87
2018-09-10T06:14:23.241Z,17.89
2018-09-10T06:15:23.221Z,17.81
2018-09-10T06:16:23.197Z,17.91
2018-09-10T06:17:23.170Z,17.87
2018-09-10T06:18:23.148Z,17.92
2018-09-10T06:19:23.120Z,18.11
2018-09-10T06:20:23.098Z,18.29
2018-09-10T06:21:23.074Z,18.36
2018-09-10T06:22:23.048Z,18.31
2018-09-10T06:23:23.027Z,18.35
2018-09-10T06:24:23.001Z,18.36
2018-09-10T06:25:22.979Z,18.42
2018-09-10T06:26:22.958Z,18.49
2018-09-10T06:27:22.930Z,18.57
2018-09-10T06:28:22.907Z,18.56
2018-09-10T06:29:22.884Z,18.57
2018-09-10T06:30:22.945Z,18.53
2018-09-10T06:31:22.836Z,18.54
2018-09-10T06:32:22.812Z,18.59
2018-09-10T06:33:22.792Z,18.72
2018-09-10T06:34:22.770Z,18.93
2018-09-10T06:35:22.741Z,19.06
2018-09-10T06:36:22.718Z,19.06
2018-09-10T06:37:22.705Z,19.09
2018-09-10T06:38:22.670Z,19.06
2018-09-10T06:39:22.896Z,18.91
2018-09-10T06:40:22.635Z,18.84
2018-09-10T06:41:22.599Z,18.66
2018-09-10T06:42:22.574Z,18.68
2018-09-10T06:43:22.549Z,18.56
2018-09-10T06:44:22.528Z,18.54
2018-09-10T06:45:22.502Z,18.64
2018-09-10T06:46:22.476Z,18.51
2018-09-10T06:47:22.452Z,18.56
2018-09-10T06:48:22.431Z,18.60
2018-09-10T06:49:22.404Z,18.54
2018-09-10T06:50:22.379Z,18.54
2018-09-10T06:51:22.360Z,18.64
2018-09-10T06:52:22.330Z,18.59
2018-09-10T06:53:22.310Z,18.50
2018-09-10T06:54:22.283Z,18.59
2018-09-10T06:55:22.255Z,18.53
2018-09-10T06:56:22.231Z,18.57
2018-09-10T06:57:22.556Z,18.53
2018-09-10T06:58:22.183Z,18.50
2018-09-10T06:59:22.157Z,18.49
2018-09-10T07:00:22.247Z,18.49
2018-09-10T07:01:22.108Z,18.50
2018-09-10T07:02:22.082Z,18.49
2018-09-10T07:03:22.057Z,18.42
2018-09-10T07:04:22.033Z,18.44
2018-09-10T07:05:22.008Z,18.47
2018-09-10T07:06:21.996Z,18.46
2018-09-10T07:07:21.957Z,18.50
2018-09-10T07:08:22.193Z,18.54
2018-09-10T07:09:21.915Z,18.49
2018-09-10T07:10:21.885Z,18.41
2018-09-10T07:11:21.864Z,18.54
2018-09-10T07:12:21.837Z,18.50
2018-09-10T07:13:21.813Z,18.49
2018-09-10T07:14:21.789Z,18.47
2018-09-10T07:15:21.766Z,18.50
2018-09-10T07:16:21.739Z,18.39
2018-09-10T07:17:21.722Z,18.44
2018-09-10T07:18:21.896Z,18.41
2018-09-10T07:19:21.666Z,18.36
2018-09-10T07:20:22.146Z,18.36
2018-09-10T07:21:21.821Z,18.29
2018-09-10T07:22:21.594Z,18.26
2018-09-10T07:23:21.573Z,18.26
2018-09-10T07:24:21.748Z,18.38
2018-09-10T07:25:21.724Z,18.26
2018-09-10T07:26:21.498Z,18.28
2018-09-10T07:27:21.473Z,18.35
2018-09-10T07:28:21.456Z,18.25
2018-09-10T07:29:21.437Z,18.38
2018-09-10T07:30:21.401Z,18.38
2018-09-10T07:31:21.379Z,18.28
2018-09-10T07:32:21.352Z,18.26
2018-09-10T07:33:21.332Z,18.26
2018-09-10T07:34:21.304Z,18.23
2018-09-10T07:35:21.280Z,18.25
2018-09-10T07:36:21.256Z,18.26
2018-09-10T07:37:21.231Z,18.25
2018-09-10T07:38:21.260Z,18.29
2018-09-10T07:39:21.385Z,18.34
2018-09-10T07:40:21.164Z,18.28
2018-09-10T07:41:21.145Z,18.35
2018-09-10T07:42:21.111Z,18.28
2018-09-10T07:43:21.117Z,18.35
2018-09-10T07:44:21.123Z,18.35
2018-09-10T07:45:21.042Z,18.29
2018-09-10T07:46:21.018Z,18.39
2018-09-10T07:47:20.989Z,18.39
2018-09-10T07:48:20.964Z,18.51
2018-09-10T07:49:21.349Z,18.38
2018-09-10T07:50:21.131Z,18.56
2018-09-10T07:51:20.893Z,18.66
2018-09-10T07:52:20.870Z,18.65
2018-09-10T07:53:21.251Z,18.71
2018-09-10T07:54:23.665Z,18.78
2018-09-10T07:55:20.999Z,18.65
2018-09-10T07:56:20.774Z,18.65
2018-09-10T07:57:20.754Z,18.69
2018-09-10T07:58:20.739Z,18.65
2018-09-10T07:59:20.712Z,18.71
2018-09-10T08:00:20.979Z,18.56
2018-09-10T08:01:20.657Z,18.69
2018-09-10T08:02:20.631Z,18.78
2018-09-10T08:03:20.609Z,18.83
2018-09-10T08:04:20.584Z,18.89
2018-09-10T08:05:20.563Z,18.74
2018-09-10T08:06:20.538Z,18.83
2018-09-10T08:07:20.516Z,18.76
2018-09-10T08:08:20.492Z,18.83
2018-09-10T08:09:20.594Z,18.96
2018-09-10T08:10:20.650Z,19.02
2018-09-10T08:11:20.426Z,19.09
2018-09-10T08:12:20.699Z,19.13
2018-09-10T08:13:20.378Z,19.20
2018-09-10T08:14:20.358Z,19.24
2018-09-10T08:15:20.331Z,19.21
2018-09-10T08:16:20.308Z,19.27
2018-09-10T08:17:20.488Z,19.34
2018-09-10T08:18:20.264Z,19.23
2018-09-10T08:19:20.240Z,19.21
2018-09-10T08:20:20.218Z,19.24
2018-09-10T08:21:20.201Z,19.10
2018-09-10T08:22:20.377Z,19.10
2018-09-10T08:23:20.150Z,19.17
2018-09-10T08:25:02.543Z,19.07
2018-09-10T08:26:02.258Z,19.12
2018-09-10T08:27:02.435Z,19.12
2018-09-10T08:28:02.212Z,19.30
2018-09-10T08:29:03.421Z,19.62
2018-09-10T08:30:02.369Z,19.71
2018-09-10T08:31:02.146Z,19.92
2018-09-10T08:32:02.324Z,20.50
2018-09-10T08:33:02.307Z,20.90
2018-09-10T08:35:44.409Z,20.83
2018-09-10T08:36:44.538Z,20.42
2018-09-10T08:38:26.519Z,20.13
2018-09-10T08:39:26.295Z,19.86
2018-09-10T08:40:26.274Z,20.00
2018-09-10T08:41:26.252Z,20.17
2018-09-10T08:42:26.236Z,20.23
2018-09-10T08:43:26.207Z,20.22
2018-09-10T08:44:26.189Z,20.48
2018-09-10T08:45:26.367Z,20.68
2018-09-10T08:48:32.806Z,21.93
2018-09-10T08:49:32.785Z,21.52
2018-09-10T08:50:32.561Z,21.30
2018-09-10T08:51:32.543Z,21.36
2018-09-10T08:52:32.519Z,21.18
2018-09-10T08:53:32.496Z,20.79
2018-09-10T08:54:32.761Z,20.72
2018-09-10T08:55:32.729Z,20.61
2018-09-10T08:56:32.440Z,20.60
2018-09-10T08:57:32.422Z,20.66
2018-09-10T08:58:32.393Z,20.53
2018-09-10T08:59:32.377Z,20.85
2018-09-10T09:00:32.512Z,21.05
2018-09-10T09:01:32.334Z,21.42
2018-09-10T09:02:32.316Z,21.66
2018-09-10T09:06:21.135Z,21.91
2018-09-10T09:07:20.891Z,22.24
2018-09-10T09:08:21.070Z,22.67
2018-09-10T09:09:21.050Z,22.86
2018-09-10T09:11:03.188Z,23.22
2018-09-10T09:12:02.967Z,22.74
2018-09-10T09:17:16.078Z,22.15
2018-09-10T09:18:18.883Z,21.49
2018-09-10T09:19:16.035Z,21.08
2018-09-10T09:21:00.995Z,20.71
2018-09-10T09:23:22.483Z,20.75
2018-09-10T09:24:22.846Z,20.79
2018-09-10T09:25:22.418Z,20.68
2018-09-10T09:26:26.232Z,20.76
2018-09-10T09:27:24.796Z,20.81
2018-09-10T09:28:24.980Z,21.06
2018-09-10T09:29:22.335Z,21.16
2018-09-10T09:30:22.428Z,21.34
2018-09-10T09:31:22.302Z,21.48
2018-09-10T09:32:22.070Z,21.66
2018-09-10T09:33:23.465Z,21.89
2018-09-10T09:34:22.234Z,22.14
2018-09-10T09:35:22.215Z,22.26
2018-09-10T09:36:22.118Z,21.94
2018-09-10T09:37:21.975Z,21.61
2018-09-10T09:38:22.151Z,21.56
2018-09-10T09:39:21.937Z,21.56
2018-09-10T09:40:22.713Z,21.52
2018-09-10T09:41:21.889Z,21.75
2018-09-10T09:42:21.870Z,21.93
2018-09-10T09:43:21.918Z,22.06
2018-09-10T09:44:21.833Z,22.27
2018-09-10T09:45:21.809Z,22.44
2018-09-10T09:46:22.039Z,22.29
2018-09-10T09:47:21.770Z,21.99
2018-09-10T09:48:21.751Z,21.98
2018-09-10T09:49:21.730Z,21.82
2018-09-10T09:50:21.710Z,21.68
2018-09-10T09:51:21.694Z,21.96
2018-09-10T09:52:21.670Z,22.02
2018-09-10T09:53:21.655Z,22.51
2018-09-10T09:54:21.632Z,22.82
2018-09-10T09:55:21.613Z,22.48
2018-09-10T09:56:21.593Z,22.14
2018-09-10T09:57:21.574Z,22.11
2018-09-10T09:58:21.810Z,22.35
2018-09-10T09:59:21.539Z,21.93
2018-09-10T10:00:21.518Z,21.79
2018-09-10T10:01:21.499Z,21.63
2018-09-10T10:02:21.480Z,21.71
2018-09-10T10:03:21.464Z,21.89
2018-09-10T10:04:21.611Z,21.89
2018-09-10T10:05:21.425Z,21.98
2018-09-10T10:06:21.408Z,22.23
2018-09-10T10:07:21.387Z,22.36
2018-09-10T10:08:21.367Z,22.52
2018-09-10T10:09:21.348Z,22.54
2018-09-10T10:10:21.531Z,22.70
2018-09-10T10:11:21.592Z,23.04
2018-09-10T10:15:10.523Z,23.00
2018-09-10T10:16:10.098Z,23.01
2018-09-10T10:17:52.438Z,23.39
2018-09-10T10:18:54.841Z,23.22
2018-09-10T10:19:52.200Z,23.26
2018-09-10T10:20:51.982Z,22.52
2018-09-10T10:21:52.013Z,22.86
2018-09-10T10:22:51.944Z,22.99
2018-09-10T10:23:52.128Z,23.31
2018-09-10T10:24:51.909Z,23.47
2018-09-10T10:25:52.093Z,23.19
2018-09-10T10:26:52.075Z,23.09
2018-09-10T10:27:54.680Z,22.97
2018-09-10T10:28:51.842Z,23.52
2018-09-10T10:29:52.032Z,23.44
2018-09-10T10:30:52.018Z,23.22
2018-09-10T10:31:51.992Z,23.12
2018-09-10T10:32:51.977Z,23.44
2018-09-10T10:33:52.966Z,24.12
2018-09-10T10:34:51.937Z,23.67
2018-09-10T10:35:51.920Z,23.12
2018-09-10T10:36:51.701Z,22.67
2018-09-10T10:37:51.888Z,23.32
2018-09-10T10:38:51.667Z,23.64
2018-09-10T10:39:51.650Z,24.49
2018-09-10T10:40:51.834Z,24.59
2018-09-10T10:41:51.822Z,24.44
2018-09-10T10:44:58.273Z,24.00
2018-09-10T10:46:40.414Z,23.99
2018-09-10T10:47:40.194Z,24.15
2018-09-10T10:50:04.945Z,24.71
2018-09-10T10:51:04.476Z,24.59
2018-09-10T10:52:04.461Z,24.63
2018-09-10T10:53:08.080Z,24.94
2018-09-10T10:54:46.791Z,23.96
2018-09-10T10:55:46.871Z,23.68
2018-09-10T10:56:46.555Z,23.87
2018-09-10T10:57:46.539Z,24.64
2018-09-10T10:58:46.523Z,24.59
2018-09-10T10:59:46.508Z,25.35
2018-09-10T11:00:46.491Z,25.45
2018-09-10T11:01:46.977Z,25.83
2018-09-10T11:03:28.820Z,25.85
2018-09-10T11:04:28.805Z,25.42
2018-09-10T11:05:28.790Z,24.77
2018-09-10T11:06:28.775Z,24.80
2018-09-10T11:07:28.757Z,24.89
2018-09-10T11:08:28.741Z,25.63
2018-09-10T11:09:28.727Z,25.76
2018-09-10T11:10:28.711Z,24.97
2018-09-10T11:39:35.031Z,24.16
2018-09-10T11:40:34.807Z,23.92
2018-09-10T11:42:17.150Z,24.05
2018-09-10T11:43:16.934Z,24.30
2018-09-10T11:44:16.914Z,23.90
2018-09-10T11:48:06.033Z,24.42
2018-09-10T11:49:05.714Z,24.24
2018-09-10T11:55:01.100Z,23.57
2018-09-10T12:07:57.436Z,23.45
2018-09-10T12:09:39.568Z,23.32
2018-09-10T12:10:39.357Z,23.26
2018-09-10T12:11:39.531Z,23.38
2018-09-10T12:12:39.513Z,23.23
2018-09-10T12:13:39.386Z,23.37
2018-09-10T12:14:39.273Z,23.34
2018-09-10T12:15:39.255Z,23.06
2018-09-10T12:16:39.243Z,23.16
2018-09-10T12:17:39.217Z,23.21
2018-09-10T12:18:39.199Z,23.47
2018-09-10T12:19:39.381Z,23.47
2018-09-10T12:20:39.161Z,23.68
2018-09-10T12:21:39.439Z,23.64
2018-09-10T12:22:39.327Z,23.72
2018-09-10T12:23:39.307Z,23.87
2018-09-10T12:24:39.288Z,23.96
2018-09-10T12:25:39.271Z,23.99
2018-09-10T12:26:39.127Z,23.93
2018-09-10T12:27:39.030Z,23.87
2018-09-10T12:28:39.017Z,23.34
2018-09-10T12:29:39.196Z,23.16
2018-09-10T12:30:38.981Z,23.18
2018-09-10T12:31:38.962Z,23.26
2018-09-10T12:33:21.296Z,23.14
2018-09-10T12:34:24.715Z,23.32
2018-09-10T12:35:21.263Z,23.32
2018-09-10T12:36:21.056Z,23.19
2018-09-10T12:37:21.028Z,23.23
2018-09-10T12:38:21.203Z,22.99
2018-09-10T12:39:24.081Z,23.14
2018-09-10T12:42:27.633Z,22.93
2018-09-10T12:43:27.619Z,23.06
2018-09-10T12:51:04.819Z,22.97
2018-09-10T12:52:04.598Z,22.86
2018-09-10T12:54:28.890Z,22.88
2018-09-10T12:55:28.874Z,23.01
2018-09-10T12:59:17.675Z,22.84
2018-09-10T13:00:17.458Z,22.70
2018-09-10T13:01:21.270Z,22.74
2018-09-10T13:02:17.414Z,22.72
2018-09-10T13:03:17.394Z,22.69
2018-09-10T13:04:17.621Z,22.56
2018-09-10T13:05:17.558Z,22.57
2018-09-10T13:06:17.338Z,22.60
2018-09-10T13:07:20.144Z,22.72
2018-09-10T13:08:17.297Z,22.51
2018-09-10T13:09:17.478Z,22.49
2018-09-10T13:10:17.463Z,22.61
2018-09-10T13:11:17.238Z,22.39
2018-09-10T13:12:17.418Z,22.57
2018-09-10T13:13:17.398Z,22.46
2018-09-10T13:14:17.379Z,22.48
2018-09-10T13:15:20.598Z,22.59
2018-09-10T13:16:17.363Z,22.67
2018-09-10T13:18:41.627Z,22.48
2018-09-10T13:19:41.405Z,22.78
2018-09-10T13:20:41.585Z,22.70
2018-09-10T13:21:41.570Z,22.52
2018-09-10T13:22:41.350Z,22.52
2018-09-10T13:23:41.326Z,22.72
2018-09-10T13:24:41.304Z,22.81
2018-09-10T13:25:41.485Z,22.79
2018-09-10T13:26:41.473Z,22.91
2018-09-10T13:27:41.243Z,23.00
2018-09-10T13:28:41.223Z,22.93
2018-09-10T13:29:41.264Z,23.19
2018-09-10T13:30:41.192Z,23.15
2018-09-10T13:31:41.162Z,23.03
2018-09-10T13:32:41.144Z,23.14
2018-09-10T13:33:41.125Z,23.19
2018-09-10T13:34:41.108Z,23.35
2018-09-10T13:35:41.093Z,23.29
2018-09-10T13:36:44.355Z,23.21
2018-09-10T13:37:41.249Z,23.09
2018-09-10T13:39:23.385Z,23.23
2018-09-10T13:40:23.168Z,23.22
2018-09-10T13:41:23.145Z,23.19
2018-09-10T13:42:23.126Z,23.03
2018-09-10T13:43:23.108Z,23.06
2018-09-10T13:44:23.090Z,23.07
2018-09-10T13:45:23.080Z,22.91
2018-09-10T13:46:23.050Z,22.97
2018-09-10T13:47:23.041Z,22.70
2018-09-10T13:48:23.012Z,22.72
2018-09-10T13:49:22.993Z,22.64
2018-09-10T13:50:22.974Z,22.56
2018-09-10T13:51:22.955Z,22.49
2018-09-10T13:52:22.936Z,22.72
2018-09-10T13:53:22.917Z,22.82
2018-09-10T13:54:22.897Z,22.76
2018-09-10T13:55:22.879Z,22.72
2018-09-10T13:56:22.859Z,22.51
2018-09-10T13:57:22.840Z,22.49
2018-09-10T13:58:22.874Z,22.74
2018-09-10T13:59:22.800Z,22.64
2018-09-10T14:00:22.781Z,22.39
2018-09-10T14:01:22.828Z,22.39
2018-09-10T14:02:22.742Z,22.54
2018-09-10T14:03:22.725Z,22.60
2018-09-10T14:04:22.702Z,22.46
2018-09-10T14:05:22.683Z,22.41
2018-09-10T14:06:22.867Z,22.41
2018-09-10T14:07:25.467Z,22.48
2018-09-10T14:08:22.830Z,22.46
2018-09-10T14:09:22.603Z,22.36
2018-09-10T14:10:22.583Z,22.19
2018-09-10T14:11:22.562Z,22.21
2018-09-10T14:12:22.542Z,22.26
2018-09-10T14:13:22.521Z,22.01
2018-09-10T14:14:22.505Z,22.14
2018-09-10T14:15:22.482Z,22.06
2018-09-10T14:17:04.818Z,22.15
2018-09-10T14:18:04.849Z,22.12
2018-09-10T14:19:04.578Z,22.04
2018-09-10T14:20:04.554Z,22.01
2018-09-10T14:21:04.533Z,21.89
2018-09-10T14:22:04.718Z,21.86
2018-09-10T14:23:04.492Z,22.04
2018-09-10T14:24:04.472Z,22.01
2018-09-10T14:27:11.130Z,21.85
2018-09-10T14:28:10.896Z,21.83
2018-09-10T14:29:11.073Z,21.93
2018-09-10T14:30:10.850Z,21.86
2018-09-10T14:31:10.829Z,21.91
2018-09-10T14:32:10.815Z,21.86
2018-09-10T14:33:10.991Z,21.83
2018-09-10T14:34:10.771Z,21.83
2018-09-10T14:35:10.744Z,21.86
2018-09-10T14:36:10.926Z,21.93
2018-09-10T14:37:10.700Z,21.91
2018-09-10T14:38:10.882Z,21.85
2018-09-10T14:39:10.662Z,21.75